sensor_id;sensor_type;location;lat;lon;timestamp;pressure;altitude;pressure_sealevel;temperature;humidity
71567;BME280;59403;47.456;19.120;2023-04-27T00:01:57;100552.63;;;5.34;79.35
71567;BME280;59403;47.456;19.120;2023-04-27T00:04:27;100552.50;;;5.36;80.17
71567;BME280;59403;47.456;19.120;2023-04-27T00:06:53;100548.44;;;5.43;80.14
71567;BME280;59403;47.456;19.120;2023-04-27T00:09:20;100547.72;;;5.41;80.03
71567;BME280;59403;47.456;19.120;2023-04-27T00:11:49;100552.25;;;5.39;79.71
71567;BME280;59403;47.456;19.120;2023-04-27T00:14:16;100543.91;;;5.45;78.65
71567;BME280;59403;47.456;19.120;2023-04-27T00:16:45;100543.44;;;5.40;80.31
71567;BME280;59403;47.456;19.120;2023-04-27T00:19:13;100547.47;;;5.44;79.18
71567;BME280;59403;47.456;19.120;2023-04-27T00:21:40;100548.22;;;5.35;80.69
71567;BME280;59403;47.456;19.120;2023-04-27T00:24:07;100551.19;;;5.30;81.22
71567;BME280;59403;47.456;19.120;2023-04-27T00:26:34;100553.22;;;5.27;81.13
71567;BME280;59403;47.456;19.120;2023-04-27T00:29:01;100554.53;;;5.32;81.04
71567;BME280;59403;47.456;19.120;2023-04-27T00:31:28;100553.09;;;5.28;82.43
71567;BME280;59403;47.456;19.120;2023-04-27T00:33:55;100558.34;;;5.28;81.92
71567;BME280;59403;47.456;19.120;2023-04-27T00:36:23;100544.88;;;5.22;82.52
71567;BME280;59403;47.456;19.120;2023-04-27T00:38:51;100549.88;;;5.25;82.10
71567;BME280;59403;47.456;19.120;2023-04-27T00:41:18;100554.88;;;5.39;82.14
71567;BME280;59403;47.456;19.120;2023-04-27T00:43:45;100547.62;;;5.31;82.88
71567;BME280;59403;47.456;19.120;2023-04-27T00:46:12;100552.03;;;5.31;82.11
71567;BME280;59403;47.456;19.120;2023-04-27T00:48:40;100548.56;;;5.41;81.99
71567;BME280;59403;47.456;19.120;2023-04-27T00:51:07;100550.84;;;5.35;81.97
71567;BME280;59403;47.456;19.120;2023-04-27T00:53:36;100546.19;;;5.27;82.68
71567;BME280;59403;47.456;19.120;2023-04-27T00:56:03;100544.38;;;5.39;81.54
71567;BME280;59403;47.456;19.120;2023-04-27T00:58:30;100551.19;;;5.30;82.38
71567;BME280;59403;47.456;19.120;2023-04-27T01:06:47;100548.22;;;5.24;82.51
71567;BME280;59403;47.456;19.120;2023-04-27T01:09:16;100548.59;;;5.19;82.67
71567;BME280;59403;47.456;19.120;2023-04-27T01:11:45;100547.62;;;5.20;82.67
71567;BME280;59403;47.456;19.120;2023-04-27T01:14:13;100544.16;;;5.20;82.89
71567;BME280;59403;47.456;19.120;2023-04-27T01:16:41;100551.78;;;5.12;81.18
71567;BME280;59403;47.456;19.120;2023-04-27T01:19:08;100551.22;;;5.19;80.80
71567;BME280;59403;47.456;19.120;2023-04-27T01:21:35;100548.69;;;5.29;80.70
71567;BME280;59403;47.456;19.120;2023-04-27T01:24:05;100559.53;;;5.35;79.92
71567;BME280;59403;47.456;19.120;2023-04-27T01:26:32;100558.13;;;5.20;81.16
71567;BME280;59403;47.456;19.120;2023-04-27T01:28:59;100555.50;;;5.20;81.09
71567;BME280;59403;47.456;19.120;2023-04-27T01:31:26;100550.94;;;5.11;81.67
71567;BME280;59403;47.456;19.120;2023-04-27T01:33:52;100558.84;;;5.00;82.31
71567;BME280;59403;47.456;19.120;2023-04-27T01:36:19;100562.87;;;5.04;82.17
71567;BME280;59403;47.456;19.120;2023-04-27T01:38:47;100556.09;;;5.02;82.13
71567;BME280;59403;47.456;19.120;2023-04-27T01:41:15;100563.22;;;5.00;81.91
71567;BME280;59403;47.456;19.120;2023-04-27T01:43:42;100556.91;;;4.91;82.47
71567;BME280;59403;47.456;19.120;2023-04-27T01:46:10;100563.22;;;4.89;82.72
71567;BME280;59403;47.456;19.120;2023-04-27T01:48:38;100562.84;;;4.82;81.88
71567;BME280;59403;47.456;19.120;2023-04-27T01:51:05;100571.91;;;4.89;82.10
71567;BME280;59403;47.456;19.120;2023-04-27T01:53:32;100570.88;;;4.92;81.00
71567;BME280;59403;47.456;19.120;2023-04-27T01:55:59;100566.09;;;4.97;81.23
71567;BME280;59403;47.456;19.120;2023-04-27T01:58:28;100565.25;;;4.96;80.24
71567;BME280;59403;47.456;19.120;2023-04-27T02:00:54;100566.19;;;4.95;80.00
71567;BME280;59403;47.456;19.120;2023-04-27T02:03:21;100573.59;;;4.90;79.41
71567;BME280;59403;47.456;19.120;2023-04-27T02:05:48;100575.50;;;4.88;79.55
71567;BME280;59403;47.456;19.120;2023-04-27T02:08:15;100573.25;;;4.95;80.24
71567;BME280;59403;47.456;19.120;2023-04-27T02:10:42;100578.22;;;4.87;79.30
71567;BME280;59403;47.456;19.120;2023-04-27T02:13:09;100585.87;;;4.90;79.36
71567;BME280;59403;47.456;19.120;2023-04-27T02:15:37;100578.03;;;4.90;79.92
71567;BME280;59403;47.456;19.120;2023-04-27T02:18:04;100583.16;;;4.91;80.03
71567;BME280;59403;47.456;19.120;2023-04-27T02:20:31;100589.09;;;4.82;78.86
71567;BME280;59403;47.456;19.120;2023-04-27T02:22:59;100583.47;;;4.87;79.54
71567;BME280;59403;47.456;19.120;2023-04-27T02:25:26;100587.41;;;4.81;78.96
71567;BME280;59403;47.456;19.120;2023-04-27T02:27:53;100590.53;;;4.86;79.00
71567;BME280;59403;47.456;19.120;2023-04-27T02:30:20;100591.81;;;4.81;79.31
71567;BME280;59403;47.456;19.120;2023-04-27T02:32:48;100599.31;;;4.74;79.62
71567;BME280;59403;47.456;19.120;2023-04-27T02:35:15;100588.72;;;4.76;79.48
71567;BME280;59403;47.456;19.120;2023-04-27T02:37:42;100592.63;;;4.70;79.80
71567;BME280;59403;47.456;19.120;2023-04-27T02:40:10;100595.25;;;4.70;79.92
71567;BME280;59403;47.456;19.120;2023-04-27T02:42:37;100598.84;;;4.69;80.21
71567;BME280;59403;47.456;19.120;2023-04-27T02:45:05;100603.56;;;4.64;79.73
71567;BME280;59403;47.456;19.120;2023-04-27T02:47:32;100595.12;;;4.72;79.70
71567;BME280;59403;47.456;19.120;2023-04-27T02:50:00;100596.59;;;4.76;79.42
71567;BME280;59403;47.456;19.120;2023-04-27T02:52:28;100605.63;;;4.72;79.66
71567;BME280;59403;47.456;19.120;2023-04-27T02:54:55;100599.66;;;4.70;79.84
71567;BME280;59403;47.456;19.120;2023-04-27T02:57:22;100605.88;;;4.69;80.37
71567;BME280;59403;47.456;19.120;2023-04-27T02:59:49;100611.19;;;4.56;81.65
71567;BME280;59403;47.456;19.120;2023-04-27T03:02:16;100610.44;;;4.54;81.93
71567;BME280;59403;47.456;19.120;2023-04-27T03:04:43;100606.59;;;4.47;82.41
71567;BME280;59403;47.456;19.120;2023-04-27T03:07:11;100614.34;;;4.48;81.54
71567;BME280;59403;47.456;19.120;2023-04-27T03:09:38;100617.94;;;4.47;82.25
71567;BME280;59403;47.456;19.120;2023-04-27T03:12:05;100618.38;;;4.41;82.58
71567;BME280;59403;47.456;19.120;2023-04-27T03:14:32;100624.22;;;4.45;82.30
71567;BME280;59403;47.456;19.120;2023-04-27T03:16:59;100625.44;;;4.41;82.09
71567;BME280;59403;47.456;19.120;2023-04-27T03:19:27;100625.97;;;4.33;82.98
71567;BME280;59403;47.456;19.120;2023-04-27T03:21:54;100627.88;;;4.31;82.54
71567;BME280;59403;47.456;19.120;2023-04-27T03:24:22;100626.31;;;4.29;82.80
71567;BME280;59403;47.456;19.120;2023-04-27T03:26:50;100628.31;;;4.25;83.29
71567;BME280;59403;47.456;19.120;2023-04-27T03:29:17;100627.47;;;4.25;83.50
71567;BME280;59403;47.456;19.120;2023-04-27T03:31:44;100629.50;;;4.21;83.57
71567;BME280;59403;47.456;19.120;2023-04-27T03:34:11;100630.03;;;4.14;84.00
71567;BME280;59403;47.456;19.120;2023-04-27T03:36:38;100633.06;;;4.20;83.74
71567;BME280;59403;47.456;19.120;2023-04-27T03:39:05;100639.25;;;4.19;84.11
71567;BME280;59403;47.456;19.120;2023-04-27T03:41:33;100643.03;;;4.15;84.52
71567;BME280;59403;47.456;19.120;2023-04-27T03:44:00;100639.69;;;4.13;84.60
71567;BME280;59403;47.456;19.120;2023-04-27T03:46:27;100639.59;;;4.15;84.91
71567;BME280;59403;47.456;19.120;2023-04-27T03:48:54;100643.97;;;4.14;84.69
71567;BME280;59403;47.456;19.120;2023-04-27T03:51:21;100646.72;;;4.13;85.19
71567;BME280;59403;47.456;19.120;2023-04-27T03:53:48;100651.22;;;4.11;85.44
71567;BME280;59403;47.456;19.120;2023-04-27T03:56:15;100647.88;;;4.09;86.21
71567;BME280;59403;47.456;19.120;2023-04-27T03:58:43;100653.13;;;4.09;86.46
71567;BME280;59403;47.456;19.120;2023-04-27T04:01:11;100651.34;;;4.09;87.18
71567;BME280;59403;47.456;19.120;2023-04-27T04:03:39;100656.47;;;4.11;87.15
71567;BME280;59403;47.456;19.120;2023-04-27T04:06:06;100657.84;;;4.04;87.67
71567;BME280;59403;47.456;19.120;2023-04-27T04:08:33;100661.94;;;4.08;87.79
71567;BME280;59403;47.456;19.120;2023-04-27T04:11:00;100656.97;;;4.16;87.71
71567;BME280;59403;47.456;19.120;2023-04-27T04:13:26;100661.16;;;4.18;87.30
71567;BME280;59403;47.456;19.120;2023-04-27T04:16:01;100666.06;;;4.23;87.75
71567;BME280;59403;47.456;19.120;2023-04-27T04:18:28;100675.06;;;4.31;87.23
71567;BME280;59403;47.456;19.120;2023-04-27T04:20:55;100682.16;;;4.42;86.71
71567;BME280;59403;47.456;19.120;2023-04-27T04:23:22;100683.16;;;4.52;86.13
71567;BME280;59403;47.456;19.120;2023-04-27T04:25:49;100687.97;;;4.58;86.01
71567;BME280;59403;47.456;19.120;2023-04-27T04:28:16;100684.87;;;4.64;85.74
71567;BME280;59403;47.456;19.120;2023-04-27T04:30:43;100690.41;;;4.72;85.25
71567;BME280;59403;47.456;19.120;2023-04-27T04:33:11;100689.00;;;4.79;85.17
71567;BME280;59403;47.456;19.120;2023-04-27T04:35:38;100687.50;;;4.88;84.50
71567;BME280;59403;47.456;19.120;2023-04-27T04:38:06;100691.34;;;4.95;84.29
71567;BME280;59403;47.456;19.120;2023-04-27T04:40:33;100691.72;;;5.01;83.86
71567;BME280;59403;47.456;19.120;2023-04-27T04:43:00;100687.69;;;5.08;83.62
71567;BME280;59403;47.456;19.120;2023-04-27T04:45:27;100693.94;;;5.29;82.63
71567;BME280;59403;47.456;19.120;2023-04-27T04:47:54;100700.47;;;5.24;82.95
71567;BME280;59403;47.456;19.120;2023-04-27T04:50:22;100700.63;;;5.33;82.54
71567;BME280;59403;47.456;19.120;2023-04-27T04:52:49;100704.97;;;5.45;81.66
71567;BME280;59403;47.456;19.120;2023-04-27T04:55:16;100704.25;;;5.65;80.80
71567;BME280;59403;47.456;19.120;2023-04-27T04:57:43;100702.00;;;6.05;79.07
71567;BME280;59403;47.456;19.120;2023-04-27T05:00:11;100704.19;;;6.11;78.43
71567;BME280;59403;47.456;19.120;2023-04-27T05:02:38;100702.25;;;6.02;78.11
71567;BME280;59403;47.456;19.120;2023-04-27T05:05:06;100708.56;;;6.33;77.62
71567;BME280;59403;47.456;19.120;2023-04-27T05:07:35;100712.28;;;6.30;77.08
71567;BME280;59403;47.456;19.120;2023-04-27T05:10:02;100710.50;;;6.20;78.27
71567;BME280;59403;47.456;19.120;2023-04-27T05:12:29;100717.75;;;6.38;76.29
71567;BME280;59403;47.456;19.120;2023-04-27T05:14:56;100720.00;;;7.17;74.53
71567;BME280;59403;47.456;19.120;2023-04-27T05:17:23;100724.16;;;7.20;72.63
71567;BME280;59403;47.456;19.120;2023-04-27T05:19:50;100722.03;;;8.05;70.64
71567;BME280;59403;47.456;19.120;2023-04-27T05:22:17;100727.25;;;7.96;70.01
71567;BME280;59403;47.456;19.120;2023-04-27T05:24:45;100726.94;;;7.59;71.26
71567;BME280;59403;47.456;19.120;2023-04-27T05:27:12;100722.50;;;7.39;72.44
71567;BME280;59403;47.456;19.120;2023-04-27T05:29:39;100727.19;;;7.15;72.52
71567;BME280;59403;47.456;19.120;2023-04-27T05:32:06;100729.66;;;7.48;71.50
71567;BME280;59403;47.456;19.120;2023-04-27T05:34:34;100730.72;;;7.66;71.04
71567;BME280;59403;47.456;19.120;2023-04-27T05:37:01;100736.84;;;7.46;70.96
71567;BME280;59403;47.456;19.120;2023-04-27T05:39:28;100725.41;;;7.36;71.05
71567;BME280;59403;47.456;19.120;2023-04-27T05:41:58;100735.50;;;7.31;68.91
71567;BME280;59403;47.456;19.120;2023-04-27T05:44:27;100736.91;;;7.56;67.21
71567;BME280;59403;47.456;19.120;2023-04-27T05:46:54;100744.84;;;7.86;65.62
71567;BME280;59403;47.456;19.120;2023-04-27T05:49:21;100744.25;;;8.43;63.44
71567;BME280;59403;47.456;19.120;2023-04-27T05:51:48;100739.47;;;8.67;64.44
71567;BME280;59403;47.456;19.120;2023-04-27T05:54:16;100741.03;;;8.98;62.62
71567;BME280;59403;47.456;19.120;2023-04-27T05:56:43;100741.19;;;9.06;60.04
71567;BME280;59403;47.456;19.120;2023-04-27T05:59:11;100739.63;;;8.84;59.63
71567;BME280;59403;47.456;19.120;2023-04-27T06:01:38;100754.91;;;8.81;59.68
71567;BME280;59403;47.456;19.120;2023-04-27T06:04:05;100748.53;;;8.74;60.63
71567;BME280;59403;47.456;19.120;2023-04-27T06:06:32;100749.53;;;9.21;59.14
71567;BME280;59403;47.456;19.120;2023-04-27T06:08:59;100748.56;;;8.93;58.05
71567;BME280;59403;47.456;19.120;2023-04-27T06:12:37;100746.09;;;10.32;55.22
71567;BME280;59403;47.456;19.120;2023-04-27T06:15:05;100746.09;;;10.32;55.22
71567;BME280;59403;47.456;19.120;2023-04-27T06:17:33;100754.94;;;10.03;55.41
71567;BME280;59403;47.456;19.120;2023-04-27T06:20:00;100748.25;;;10.09;54.56
71567;BME280;59403;47.456;19.120;2023-04-27T06:22:28;100757.78;;;9.83;51.28
71567;BME280;59403;47.456;19.120;2023-04-27T06:24:55;100753.62;;;10.26;51.46
71567;BME280;59403;47.456;19.120;2023-04-27T06:27:22;100754.50;;;10.17;49.04
71567;BME280;59403;47.456;19.120;2023-04-27T06:29:50;100757.09;;;10.27;50.34
71567;BME280;59403;47.456;19.120;2023-04-27T06:32:17;100761.84;;;10.23;49.75
71567;BME280;59403;47.456;19.120;2023-04-27T06:34:44;100764.84;;;10.11;49.55
71567;BME280;59403;47.456;19.120;2023-04-27T06:37:11;100764.38;;;10.15;50.84
71567;BME280;59403;47.456;19.120;2023-04-27T06:39:39;100769.28;;;10.01;50.15
71567;BME280;59403;47.456;19.120;2023-04-27T06:42:06;100764.72;;;9.93;47.83
71567;BME280;59403;47.456;19.120;2023-04-27T06:44:33;100777.41;;;9.90;49.07
71567;BME280;59403;47.456;19.120;2023-04-27T06:47:01;100767.81;;;9.79;49.16
71567;BME280;59403;47.456;19.120;2023-04-27T06:49:28;100770.66;;;10.05;50.33
71567;BME280;59403;47.456;19.120;2023-04-27T06:51:55;100772.63;;;10.03;50.75
71567;BME280;59403;47.456;19.120;2023-04-27T06:54:22;100773.72;;;10.19;49.63
71567;BME280;59403;47.456;19.120;2023-04-27T06:56:49;100769.78;;;10.23;47.65
71567;BME280;59403;47.456;19.120;2023-04-27T06:59:16;100775.19;;;10.59;47.23
71567;BME280;59403;47.456;19.120;2023-04-27T07:01:43;100771.75;;;10.76;47.36
71567;BME280;59403;47.456;19.120;2023-04-27T07:04:12;100768.97;;;10.95;47.47
71567;BME280;59403;47.456;19.120;2023-04-27T07:06:38;100766.34;;;11.30;46.80
71567;BME280;59403;47.456;19.120;2023-04-27T07:09:05;100769.59;;;10.89;46.74
71567;BME280;59403;47.456;19.120;2023-04-27T07:11:39;100767.91;;;11.23;47.58
71567;BME280;59403;47.456;19.120;2023-04-27T07:14:08;100766.97;;;11.24;46.03
71567;BME280;59403;47.456;19.120;2023-04-27T07:16:35;100772.09;;;11.43;46.79
71567;BME280;59403;47.456;19.120;2023-04-27T07:19:05;100765.84;;;11.52;44.36
71567;BME280;59403;47.456;19.120;2023-04-27T07:21:34;100768.75;;;11.41;44.50
71567;BME280;59403;47.456;19.120;2023-04-27T07:24:01;100764.75;;;11.80;45.43
71567;BME280;59403;47.456;19.120;2023-04-27T07:26:28;100774.09;;;11.84;44.01
71567;BME280;59403;47.456;19.120;2023-04-27T07:28:58;100770.28;;;12.12;45.26
71567;BME280;59403;47.456;19.120;2023-04-27T07:31:25;100776.03;;;12.33;44.19
71567;BME280;59403;47.456;19.120;2023-04-27T07:33:52;100779.31;;;12.27;44.03
71567;BME280;59403;47.456;19.120;2023-04-27T07:36:20;100773.25;;;12.43;42.76
71567;BME280;59403;47.456;19.120;2023-04-27T07:38:48;100778.75;;;12.49;43.35
71567;BME280;59403;47.456;19.120;2023-04-27T07:41:15;100778.97;;;12.64;42.93
71567;BME280;59403;47.456;19.120;2023-04-27T07:43:42;100780.00;;;12.63;40.25
71567;BME280;59403;47.456;19.120;2023-04-27T07:46:09;100783.75;;;12.52;41.28
71567;BME280;59403;47.456;19.120;2023-04-27T07:48:36;100785.03;;;12.40;40.10
71567;BME280;59403;47.456;19.120;2023-04-27T07:51:03;100781.69;;;11.79;37.65
71567;BME280;59403;47.456;19.120;2023-04-27T07:53:33;100772.22;;;12.36;38.73
71567;BME280;59403;47.456;19.120;2023-04-27T07:56:04;100778.03;;;12.81;37.59
71567;BME280;59403;47.456;19.120;2023-04-27T07:58:31;100778.84;;;12.74;36.41
71567;BME280;59403;47.456;19.120;2023-04-27T08:00:58;100782.16;;;12.68;38.28
71567;BME280;59403;47.456;19.120;2023-04-27T08:03:25;100772.25;;;12.94;38.61
71567;BME280;59403;47.456;19.120;2023-04-27T08:05:52;100774.25;;;13.00;35.12
71567;BME280;59403;47.456;19.120;2023-04-27T08:08:19;100779.22;;;12.95;34.51
71567;BME280;59403;47.456;19.120;2023-04-27T08:10:47;100783.94;;;12.59;34.21
71567;BME280;59403;47.456;19.120;2023-04-27T08:13:15;100781.31;;;13.25;35.11
71567;BME280;59403;47.456;19.120;2023-04-27T08:15:42;100775.38;;;12.73;34.01
71567;BME280;59403;47.456;19.120;2023-04-27T08:18:09;100780.56;;;12.91;33.13
71567;BME280;59403;47.456;19.120;2023-04-27T08:20:36;100781.12;;;13.02;32.27
71567;BME280;59403;47.456;19.120;2023-04-27T08:23:02;100774.66;;;13.13;34.13
71567;BME280;59403;47.456;19.120;2023-04-27T08:25:29;100767.28;;;12.91;34.50
71567;BME280;59403;47.456;19.120;2023-04-27T08:27:56;100782.47;;;13.14;35.28
71567;BME280;59403;47.456;19.120;2023-04-27T08:30:25;100778.00;;;13.23;34.05
71567;BME280;59403;47.456;19.120;2023-04-27T08:32:51;100786.78;;;13.15;33.64
71567;BME280;59403;47.456;19.120;2023-04-27T08:35:19;100772.50;;;12.67;35.28
71567;BME280;59403;47.456;19.120;2023-04-27T08:37:46;100783.78;;;13.02;35.46
71567;BME280;59403;47.456;19.120;2023-04-27T08:40:13;100776.91;;;13.00;35.48
71567;BME280;59403;47.456;19.120;2023-04-27T08:42:51;100788.19;;;12.44;35.12
71567;BME280;59403;47.456;19.120;2023-04-27T08:45:19;100777.44;;;12.53;34.35
71567;BME280;59403;47.456;19.120;2023-04-27T08:47:48;100776.37;;;12.80;35.10
71567;BME280;59403;47.456;19.120;2023-04-27T08:50:14;100775.78;;;12.52;34.19
71567;BME280;59403;47.456;19.120;2023-04-27T08:52:43;100775.69;;;13.36;33.45
71567;BME280;59403;47.456;19.120;2023-04-27T08:55:10;100770.62;;;13.97;37.15
71567;BME280;59403;47.456;19.120;2023-04-27T08:57:37;100761.72;;;14.37;35.63
71567;BME280;59403;47.456;19.120;2023-04-27T09:00:05;100776.41;;;14.17;34.42
71567;BME280;59403;47.456;19.120;2023-04-27T09:02:43;100776.06;;;12.91;34.01
71567;BME280;59403;47.456;19.120;2023-04-27T09:05:16;100767.44;;;12.97;35.09
71567;BME280;59403;47.456;19.120;2023-04-27T09:07:55;100762.28;;;12.38;35.33
71567;BME280;59403;47.456;19.120;2023-04-27T09:10:22;100767.41;;;12.39;36.44
71567;BME280;59403;47.456;19.120;2023-04-27T09:12:54;100759.47;;;12.47;35.06
71567;BME280;59403;47.456;19.120;2023-04-27T09:15:21;100751.84;;;12.94;34.95
71567;BME280;59403;47.456;19.120;2023-04-27T09:17:53;100757.97;;;13.99;34.91
71567;BME280;59403;47.456;19.120;2023-04-27T09:20:22;100757.97;;;14.07;33.08
71567;BME280;59403;47.456;19.120;2023-04-27T09:22:52;100752.06;;;13.33;34.48
71567;BME280;59403;47.456;19.120;2023-04-27T09:25:24;100749.47;;;12.83;36.54
71567;BME280;59403;47.456;19.120;2023-04-27T09:27:51;100749.25;;;13.58;35.27
71567;BME280;59403;47.456;19.120;2023-04-27T09:30:18;100752.06;;;13.65;35.47
71567;BME280;59403;47.456;19.120;2023-04-27T09:32:50;100753.03;;;13.08;35.77
71567;BME280;59403;47.456;19.120;2023-04-27T09:35:22;100746.22;;;13.05;38.36
71567;BME280;59403;47.456;19.120;2023-04-27T09:37:51;100744.41;;;13.06;36.17
71567;BME280;59403;47.456;19.120;2023-04-27T09:40:18;100738.41;;;13.12;36.83
71567;BME280;59403;47.456;19.120;2023-04-27T09:42:48;100733.25;;;13.34;37.32
71567;BME280;59403;47.456;19.120;2023-04-27T09:45:16;100736.41;;;13.70;37.67
71567;BME280;59403;47.456;19.120;2023-04-27T09:47:44;100730.19;;;14.02;35.23
71567;BME280;59403;47.456;19.120;2023-04-27T09:50:12;100733.44;;;13.65;35.84
71567;BME280;59403;47.456;19.120;2023-04-27T09:52:41;100730.09;;;14.34;35.07
71567;BME280;59403;47.456;19.120;2023-04-27T09:55:10;100724.22;;;14.77;33.24
71567;BME280;59403;47.456;19.120;2023-04-27T09:57:50;100725.31;;;14.91;34.20
71567;BME280;59403;47.456;19.120;2023-04-27T10:00:25;100721.09;;;15.41;35.51
71567;BME280;59403;47.456;19.120;2023-04-27T10:03:06;100728.47;;;14.94;34.07
71567;BME280;59403;47.456;19.120;2023-04-27T10:05:45;100724.38;;;14.84;34.93
71567;BME280;59403;47.456;19.120;2023-04-27T10:08:17;100725.00;;;14.08;35.87
71567;BME280;59403;47.456;19.120;2023-04-27T10:10:47;100713.16;;;13.08;36.13
71567;BME280;59403;47.456;19.120;2023-04-27T10:13:22;100721.41;;;13.93;35.40
71567;BME280;59403;47.456;19.120;2023-04-27T10:15:49;100714.81;;;14.28;35.11
71567;BME280;59403;47.456;19.120;2023-04-27T10:18:28;100719.59;;;13.69;35.24
71567;BME280;59403;47.456;19.120;2023-04-27T10:20:55;100709.50;;;13.49;36.03
71567;BME280;59403;47.456;19.120;2023-04-27T10:23:25;100713.97;;;13.64;35.89
71567;BME280;59403;47.456;19.120;2023-04-27T10:25:53;100709.81;;;13.62;36.64
71567;BME280;59403;47.456;19.120;2023-04-27T10:28:21;100712.31;;;13.31;37.26
71567;BME280;59403;47.456;19.120;2023-04-27T10:30:48;100703.34;;;13.24;37.02
71567;BME280;59403;47.456;19.120;2023-04-27T10:33:17;100711.31;;;13.24;36.70
71567;BME280;59403;47.456;19.120;2023-04-27T10:35:53;100712.59;;;13.77;34.88
71567;BME280;59403;47.456;19.120;2023-04-27T10:38:28;100710.94;;;13.67;34.45
71567;BME280;59403;47.456;19.120;2023-04-27T10:40:58;100709.31;;;13.50;36.75
71567;BME280;59403;47.456;19.120;2023-04-27T10:43:27;100710.28;;;13.74;36.09
71567;BME280;59403;47.456;19.120;2023-04-27T10:46:06;100715.97;;;13.71;36.65
71567;BME280;59403;47.456;19.120;2023-04-27T10:48:33;100714.50;;;13.36;35.94
71567;BME280;59403;47.456;19.120;2023-04-27T10:51:00;100712.81;;;13.51;36.51
71567;BME280;59403;47.456;19.120;2023-04-27T10:53:32;100714.78;;;13.73;37.05
71567;BME280;59403;47.456;19.120;2023-04-27T10:56:01;100708.00;;;13.54;34.60
71567;BME280;59403;47.456;19.120;2023-04-27T10:58:31;100713.31;;;13.71;36.12
71567;BME280;59403;47.456;19.120;2023-04-27T11:00:58;100709.66;;;13.63;36.25
71567;BME280;59403;47.456;19.120;2023-04-27T11:03:25;100705.00;;;13.41;35.46
71567;BME280;59403;47.456;19.120;2023-04-27T11:05:59;100711.16;;;13.58;35.05
71567;BME280;59403;47.456;19.120;2023-04-27T11:08:27;100700.16;;;12.97;35.10
71567;BME280;59403;47.456;19.120;2023-04-27T11:10:55;100705.19;;;13.16;36.99
71567;BME280;59403;47.456;19.120;2023-04-27T11:13:25;100701.78;;;12.90;36.61
71567;BME280;59403;47.456;19.120;2023-04-27T11:15:54;100703.62;;;12.81;37.57
71567;BME280;59403;47.456;19.120;2023-04-27T11:18:23;100694.44;;;12.60;37.05
71567;BME280;59403;47.456;19.120;2023-04-27T11:20:51;100696.47;;;12.90;37.05
71567;BME280;59403;47.456;19.120;2023-04-27T11:23:23;100693.22;;;13.28;36.76
71567;BME280;59403;47.456;19.120;2023-04-27T11:25:50;100687.34;;;14.19;36.27
71567;BME280;59403;47.456;19.120;2023-04-27T11:28:17;100691.91;;;15.03;34.66
71567;BME280;59403;47.456;19.120;2023-04-27T11:30:46;100691.88;;;15.25;34.63
71567;BME280;59403;47.456;19.120;2023-04-27T11:33:13;100685.94;;;14.93;33.87
71567;BME280;59403;47.456;19.120;2023-04-27T11:35:40;100692.13;;;14.32;33.17
71567;BME280;59403;47.456;19.120;2023-04-27T11:38:15;100691.75;;;14.43;34.82
71567;BME280;59403;47.456;19.120;2023-04-27T11:40:42;100686.59;;;14.72;33.93
71567;BME280;59403;47.456;19.120;2023-04-27T11:43:11;100689.16;;;15.11;33.55
71567;BME280;59403;47.456;19.120;2023-04-27T11:45:41;100685.28;;;14.37;33.98
71567;BME280;59403;47.456;19.120;2023-04-27T11:48:13;100689.00;;;13.74;34.46
71567;BME280;59403;47.456;19.120;2023-04-27T11:50:41;100687.78;;;14.39;36.86
71567;BME280;59403;47.456;19.120;2023-04-27T11:53:11;100681.41;;;14.48;33.42
71567;BME280;59403;47.456;19.120;2023-04-27T11:55:38;100687.47;;;14.34;34.80
71567;BME280;59403;47.456;19.120;2023-04-27T11:58:06;100687.50;;;14.64;34.40
71567;BME280;59403;47.456;19.120;2023-04-27T12:00:38;100689.56;;;15.00;32.46
71567;BME280;59403;47.456;19.120;2023-04-27T12:03:05;100680.25;;;15.18;33.47
71567;BME280;59403;47.456;19.120;2023-04-27T12:05:34;100677.41;;;14.74;34.52
71567;BME280;59403;47.456;19.120;2023-04-27T12:08:01;100679.72;;;14.77;33.36
71567;BME280;59403;47.456;19.120;2023-04-27T12:10:28;100679.31;;;15.11;33.07
71567;BME280;59403;47.456;19.120;2023-04-27T12:12:55;100682.44;;;15.89;32.42
71567;BME280;59403;47.456;19.120;2023-04-27T12:15:22;100676.72;;;15.92;31.98
71567;BME280;59403;47.456;19.120;2023-04-27T12:17:49;100672.94;;;16.16;33.74
71567;BME280;59403;47.456;19.120;2023-04-27T12:20:16;100675.88;;;15.91;31.70
71567;BME280;59403;47.456;19.120;2023-04-27T12:22:45;100665.56;;;15.00;32.93
71567;BME280;59403;47.456;19.120;2023-04-27T12:25:12;100671.88;;;14.53;34.57
71567;BME280;59403;47.456;19.120;2023-04-27T12:27:39;100677.00;;;14.24;35.06
71567;BME280;59403;47.456;19.120;2023-04-27T12:30:07;100678.72;;;14.09;34.38
71567;BME280;59403;47.456;19.120;2023-04-27T12:32:34;100676.22;;;13.53;35.16
71567;BME280;59403;47.456;19.120;2023-04-27T12:35:01;100678.00;;;14.31;35.05
71567;BME280;59403;47.456;19.120;2023-04-27T12:37:28;100668.78;;;14.42;35.33
71567;BME280;59403;47.456;19.120;2023-04-27T12:39:56;100667.94;;;14.03;34.56
71567;BME280;59403;47.456;19.120;2023-04-27T12:42:23;100673.50;;;13.77;35.13
71567;BME280;59403;47.456;19.120;2023-04-27T12:44:50;100665.53;;;13.77;34.89
71567;BME280;59403;47.456;19.120;2023-04-27T12:47:18;100656.19;;;14.58;36.80
71567;BME280;59403;47.456;19.120;2023-04-27T12:49:45;100661.53;;;15.04;33.24
71567;BME280;59403;47.456;19.120;2023-04-27T12:52:12;100669.50;;;15.49;32.99
71567;BME280;59403;47.456;19.120;2023-04-27T12:54:39;100664.66;;;15.30;31.88
71567;BME280;59403;47.456;19.120;2023-04-27T12:57:08;100664.94;;;14.75;32.85